Los Angeles, California
Traffic Map
Current Weather Conditions
Los Angeles, California
Clear
Clear
20°
Feels Like: 20°
Wind Chill: 20° Ceiling: Unl
Heat Index: 20° Visibility: 10mi
Dew Point: 16° Wind: 0mph
Humidity: 78% Direction: ° ()
Pressure: 29.96in Gusts: 0mph
Raw Report DataKCQT 220547Z AUTO 00000KT 10SM CLR 20/16 A2996 RMK AO2 SLP142 T02000161 10244 20200 51018
Traffic Incident Summary
Active as of:
Severity:
Category:
InformationThere was an issue retrieving the traffic information for this location. Please try a different location or try again shortly.
Advertisements
Track Severe Weather on mobile